createdAt,value
2022-10-30T00:01:40.538Z,92.63
2022-10-30T00:07:12.122Z,92.54
2022-10-30T00:12:43.969Z,92.51
2022-10-30T00:18:15.568Z,91.95
2022-10-30T00:23:47.325Z,92.84
2022-10-30T00:29:18.994Z,93.26
2022-10-30T00:34:50.731Z,92.06
2022-10-30T00:40:22.494Z,91.74
2022-10-30T00:45:54.298Z,92.87
2022-10-30T00:51:25.958Z,95.14
2022-10-30T00:56:57.633Z,96.44
2022-10-30T01:02:35.943Z,97.46
2022-10-30T01:08:07.542Z,97.39
2022-10-30T01:13:39.202Z,96.75
2022-10-30T01:19:10.997Z,96.49
2022-10-30T01:24:42.875Z,98.39
2022-10-30T01:30:14.513Z,98.72
2022-10-30T01:35:46.103Z,98.15
2022-10-30T01:41:17.847Z,97.8
2022-10-30T01:46:49.503Z,97.84
2022-10-30T01:52:21.299Z,97.94
2022-10-30T01:57:52.971Z,96.9
2022-10-30T02:03:29.748Z,97.05
2022-10-30T02:09:00.878Z,97.86
2022-10-30T02:14:32.510Z,96.64
2022-10-30T02:20:04.287Z,96.53
2022-10-30T02:25:35.947Z,96.27
2022-10-30T02:31:07.702Z,95.51
2022-10-30T02:36:39.378Z,95.78
2022-10-30T02:42:11.215Z,95.78
2022-10-30T02:47:42.782Z,96.35
2022-10-30T02:53:14.667Z,95.78
2022-10-30T02:58:46.367Z,95.8
2022-10-30T03:04:24.422Z,96.48
2022-10-30T03:09:56.151Z,97.11
2022-10-30T03:15:27.859Z,97.13
2022-10-30T03:20:59.598Z,97.29
2022-10-30T03:26:31.246Z,97.04
2022-10-30T03:32:03.032Z,96.48
2022-10-30T03:37:34.891Z,96.54
2022-10-30T03:43:06.559Z,97.07
2022-10-30T03:48:38.232Z,97.55
2022-10-30T03:54:09.937Z,97.8
2022-10-30T03:59:41.661Z,98.2
2022-10-30T04:05:17.919Z,98.62
2022-10-30T04:10:49.614Z,98.52
2022-10-30T04:16:21.279Z,98.77
2022-10-30T04:21:52.906Z,98.27
2022-10-30T04:27:24.627Z,98.53
2022-10-30T04:32:57.694Z,99.04
2022-10-30T04:38:28.048Z,98.98
2022-10-30T04:43:59.807Z,97.87
2022-10-30T04:49:31.528Z,98.14
2022-10-30T04:55:03.099Z,98.03
2022-10-30T05:00:34.824Z,98.09
2022-10-30T05:06:15.004Z,97.22
2022-10-30T05:11:46.724Z,97.29
2022-10-30T05:17:18.791Z,97.16
2022-10-30T05:22:50.183Z,96.7
2022-10-30T05:28:21.888Z,97.38
2022-10-30T05:33:53.575Z,97.01
2022-10-30T05:39:25.298Z,96.54
2022-10-30T05:45:02.393Z,96.49
2022-10-30T05:50:28.796Z,96.11
2022-10-30T05:56:00.568Z,95.67
2022-10-30T06:01:32.384Z,96.35
2022-10-30T06:07:08.327Z,96.69
2022-10-30T06:12:40.034Z,96.87
2022-10-30T06:18:11.898Z,96.57
2022-10-30T06:23:43.526Z,97.07
2022-10-30T06:29:15.192Z,96.29
2022-10-30T06:34:46.969Z,96.8
2022-10-30T06:40:18.719Z,95.89
2022-10-30T06:45:51.119Z,95.91
2022-10-30T06:51:22.339Z,95.36
2022-10-30T06:56:53.792Z,94.88
2022-10-30T07:02:25.772Z,94.0
2022-10-30T07:08:01.687Z,93.93
2022-10-30T07:13:33.468Z,94.22
2022-10-30T07:19:05.420Z,93.55
2022-10-30T07:24:36.850Z,93.22
2022-10-30T07:30:08.548Z,93.06
2022-10-30T07:35:40.319Z,92.95
2022-10-30T07:41:12.062Z,93.96
2022-10-30T07:46:43.800Z,92.86
2022-10-30T07:52:17.822Z,92.65
2022-10-30T07:57:47.351Z,92.41
2022-10-30T08:03:18.959Z,91.29
2022-10-30T08:08:55.016Z,90.63
2022-10-30T08:14:26.797Z,90.28
2022-10-30T08:19:58.513Z,89.64
2022-10-30T08:25:30.222Z,91.06
2022-10-30T08:31:02.031Z,90.29
2022-10-30T08:36:33.871Z,88.13
2022-10-30T08:42:05.451Z,86.84
2022-10-30T08:47:37.518Z,85.76
2022-10-30T08:53:08.990Z,86.27
2022-10-30T08:58:40.582Z,85.54
2022-10-30T09:04:12.418Z,84.17
2022-10-30T09:09:50.681Z,83.51
2022-10-30T09:15:22.224Z,83.28
2022-10-30T09:20:53.931Z,82.99
2022-10-30T09:26:25.608Z,82.58
2022-10-30T09:31:57.388Z,82.39
2022-10-30T09:37:29.144Z,82.33
2022-10-30T09:43:00.867Z,80.5
2022-10-30T09:48:32.552Z,79.95
2022-10-30T09:54:04.298Z,79.67
2022-10-30T09:59:36.014Z,79.94
2022-10-30T10:05:07.697Z,78.73
2022-10-30T10:10:43.703Z,79.01
2022-10-30T10:16:15.553Z,78.49
2022-10-30T10:21:47.372Z,77.77
2022-10-30T10:27:19.094Z,76.33
2022-10-30T10:32:50.738Z,76.29
2022-10-30T10:38:22.430Z,75.53
2022-10-30T10:43:54.219Z,74.26
2022-10-30T10:49:25.858Z,71.67
2022-10-30T10:54:57.644Z,72.89
2022-10-30T11:00:29.501Z,70.79
2022-10-30T11:06:01.367Z,69.26
2022-10-30T11:11:37.218Z,71.02
2022-10-30T11:17:08.957Z,72.0
2022-10-30T11:22:40.586Z,69.61
2022-10-30T11:28:12.369Z,70.98
2022-10-30T11:33:44.132Z,68.96
2022-10-30T11:39:15.817Z,70.85
2022-10-30T11:44:47.618Z,70.02
2022-10-30T11:50:19.509Z,70.91
2022-10-30T11:55:50.885Z,71.87
2022-10-30T12:01:22.877Z,72.11
2022-10-30T12:06:54.390Z,72.03
2022-10-30T12:12:32.527Z,71.2
2022-10-30T12:18:04.282Z,70.41
2022-10-30T12:23:35.990Z,69.76
2022-10-30T12:29:07.680Z,69.95
2022-10-30T12:34:39.453Z,70.28
2022-10-30T12:40:11.175Z,72.01
2022-10-30T12:45:42.911Z,71.65
2022-10-30T12:51:18.523Z,72.01
2022-10-30T12:56:46.364Z,70.31
2022-10-30T13:02:18.415Z,70.48
2022-10-30T13:07:49.765Z,72.45
2022-10-30T13:13:25.778Z,73.41
2022-10-30T13:18:57.593Z,71.46
2022-10-30T13:24:29.276Z,71.53
2022-10-30T13:30:01.055Z,72.37
2022-10-30T13:35:32.812Z,72.15
2022-10-30T13:41:04.463Z,72.16
2022-10-30T13:46:36.207Z,72.23
2022-10-30T13:52:07.932Z,71.85
2022-10-30T13:57:39.735Z,71.53
2022-10-30T14:03:11.400Z,72.72
2022-10-30T14:08:43.104Z,72.97
2022-10-30T14:14:19.271Z,73.64
2022-10-30T14:19:50.995Z,73.95
2022-10-30T14:25:22.800Z,76.49
2022-10-30T14:30:54.526Z,79.18
2022-10-30T14:36:26.128Z,80.27
2022-10-30T14:41:57.878Z,81.55
2022-10-30T14:47:29.620Z,81.04
2022-10-30T14:53:02.053Z,82.14
2022-10-30T14:58:33.056Z,82.97
2022-10-30T15:04:04.827Z,83.2
2022-10-30T15:09:36.510Z,83.06
2022-10-30T15:15:14.607Z,83.34
2022-10-30T15:20:46.339Z,83.55
2022-10-30T15:26:18.251Z,83.53
2022-10-30T15:31:49.992Z,84.22
2022-10-30T15:37:21.671Z,84.15
2022-10-30T15:42:53.412Z,84.62
2022-10-30T15:48:25.123Z,84.91
2022-10-30T15:53:56.888Z,85.1
2022-10-30T15:59:28.658Z,85.14
2022-10-30T16:05:00.407Z,85.71
2022-10-30T16:10:31.957Z,86.1
2022-10-30T16:16:08.269Z,86.96
2022-10-30T16:21:39.995Z,87.06
2022-10-30T16:27:11.637Z,87.5
2022-10-30T16:32:43.427Z,87.42
2022-10-30T16:38:15.134Z,87.03
2022-10-30T16:43:46.797Z,87.11
2022-10-30T16:49:18.542Z,86.74
2022-10-30T16:54:50.424Z,86.43
2022-10-30T17:00:28.068Z,86.63
2022-10-30T17:05:53.717Z,86.68
2022-10-30T17:11:25.452Z,86.94
2022-10-30T17:17:01.443Z,88.0
2022-10-30T17:22:33.387Z,88.09
2022-10-30T17:28:04.981Z,88.55
2022-10-30T17:33:36.714Z,88.17
2022-10-30T17:39:08.487Z,89.24
2022-10-30T17:44:40.279Z,89.15
2022-10-30T17:50:12.048Z,89.21
2022-10-30T17:55:43.707Z,93.89
2022-10-30T18:01:15.635Z,92.42
2022-10-30T18:06:47.187Z,92.62
2022-10-30T18:12:19.742Z,93.27
2022-10-30T18:17:55.784Z,94.63
2022-10-30T18:23:53.039Z,94.67
2022-10-30T18:28:59.347Z,95.53
2022-10-30T18:34:31.003Z,96.9
2022-10-30T18:40:02.842Z,96.52
2022-10-30T18:45:34.557Z,97.21
2022-10-30T18:51:06.252Z,97.24
2022-10-30T18:56:38.114Z,97.56
2022-10-30T19:02:10.055Z,97.42
2022-10-30T19:07:41.475Z,97.47
2022-10-30T19:13:13.759Z,98.88
2022-10-30T19:18:51.334Z,99.6
2022-10-30T19:24:23.088Z,99.91
2022-10-30T19:29:54.720Z,100.0
2022-10-30T19:35:26.515Z,99.46
2022-10-30T19:40:58.261Z,99.71
2022-10-30T19:46:29.884Z,98.75
2022-10-30T19:52:01.633Z,96.65
2022-10-30T19:57:33.417Z,97.07
2022-10-30T20:03:05.159Z,97.88
2022-10-30T20:08:36.743Z,99.02
2022-10-30T20:14:08.618Z,98.99
2022-10-30T20:19:44.721Z,98.01
2022-10-30T20:25:16.451Z,96.18
2022-10-30T20:30:48.180Z,95.9
2022-10-30T20:36:19.891Z,96.64
2022-10-30T20:41:51.674Z,96.84
2022-10-30T20:47:23.441Z,97.34
2022-10-30T20:52:55.162Z,98.37
2022-10-30T20:58:26.780Z,98.25
2022-10-30T21:04:02.122Z,97.55
2022-10-30T21:09:30.394Z,97.32
2022-10-30T21:15:02.093Z,96.81
2022-10-30T21:20:40.259Z,97.32
2022-10-30T21:26:11.898Z,97.25
2022-10-30T21:31:43.711Z,96.93
2022-10-30T21:37:15.430Z,96.28
2022-10-30T21:42:47.090Z,94.86
2022-10-30T21:48:18.867Z,95.31
2022-10-30T21:53:50.610Z,94.55
2022-10-30T21:59:22.340Z,94.02
2022-10-30T22:04:54.074Z,94.21
2022-10-30T22:10:25.832Z,94.45
2022-10-30T22:15:57.610Z,94.52
2022-10-30T22:21:33.662Z,94.26
2022-10-30T22:27:05.380Z,94.61
2022-10-30T22:32:37.071Z,95.19
2022-10-30T22:38:08.959Z,95.28
2022-10-30T22:43:40.547Z,95.57
2022-10-30T22:49:12.260Z,95.81
2022-10-30T22:54:43.990Z,95.49
2022-10-30T23:00:19.616Z,95.1
2022-10-30T23:05:47.471Z,95.78
2022-10-30T23:11:19.116Z,94.85
2022-10-30T23:16:50.852Z,94.15
2022-10-30T23:22:28.976Z,94.78
2022-10-30T23:28:01.284Z,94.35
2022-10-30T23:33:32.471Z,94.19
2022-10-30T23:39:04.184Z,94.54
2022-10-30T23:44:35.899Z,93.9
2022-10-30T23:50:07.695Z,94.32
2022-10-30T23:55:39.499Z,94.26
